Time;durP1;ratioP1;P1;durP2;ratioP2;P2;SDS_P1;SDS_P2;PMS_P1;PMS_P2;Temp;Humidity;BMP_temperature;BMP_pressure;BME280_temperature;BME280_humidity;BME280_pressure;Samples;Min_cycle;Max_cycle;Signal;HPM_P1;HPM_P2
2021/01/24 00:01:49;;;;;;;24.50;15.10;;;1.80;99.90;;;;;;5017263;28;20033;-49
2021/01/24 00:04:14;;;;;;;30.95;16.70;;;1.80;99.90;;;;;;5015635;28;20065;-46
2021/01/24 00:06:40;;;;;;;31.10;17.48;;;1.80;99.90;;;;;;5020575;28;20084;-47
2021/01/24 00:09:05;;;;;;;27.90;16.65;;;1.80;99.90;;;;;;5018519;28;20447;-48
2021/01/24 00:11:31;;;;;;;32.42;16.13;;;1.70;99.90;;;;;;5022442;28;20105;-46
2021/01/24 00:13:56;;;;;;;28.02;16.05;;;1.80;99.90;;;;;;5018999;28;20049;-46
2021/01/24 00:16:22;;;;;;;27.27;14.93;;;1.70;99.90;;;;;;5020429;28;20032;-47
2021/01/24 00:18:47;;;;;;;30.05;17.33;;;1.70;99.90;;;;;;5019961;28;20018;-47
2021/01/24 00:21:13;;;;;;;27.80;16.23;;;1.70;99.90;;;;;;5022707;28;20283;-47
2021/01/24 00:23:38;;;;;;;27.95;15.30;;;1.70;99.90;;;;;;5015715;28;20115;-46
2021/01/24 00:26:03;;;;;;;29.42;15.68;;;1.70;99.90;;;;;;5001078;28;20399;-45
2021/01/24 00:28:29;;;;;;;24.88;14.77;;;1.70;99.90;;;;;;5028735;28;20067;-46
2021/01/24 00:30:54;;;;;;;22.88;13.77;;;1.80;99.90;;;;;;5031129;28;20064;-46
2021/01/24 00:33:20;;;;;;;27.27;15.63;;;1.80;99.90;;;;;;5031154;28;20025;-47
2021/01/24 00:35:45;;;;;;;25.80;15.73;;;1.80;99.90;;;;;;5030391;28;20021;-46
2021/01/24 00:38:11;;;;;;;25.38;14.82;;;1.80;99.90;;;;;;5030709;28;20034;-49
2021/01/24 00:40:36;;;;;;;30.55;16.40;;;1.80;99.90;;;;;;5030714;28;20033;-46
2021/01/24 00:43:02;;;;;;;29.73;16.50;;;1.80;99.90;;;;;;5030752;28;20388;-46
2021/01/24 00:45:28;;;;;;;26.58;14.88;;;1.80;99.90;;;;;;5030234;28;20026;-46
2021/01/24 00:47:53;;;;;;;26.65;15.82;;;1.80;99.90;;;;;;5030733;28;20025;-45
2021/01/24 00:50:19;;;;;;;26.20;15.70;;;1.80;99.90;;;;;;5030597;28;20415;-46
2021/01/24 00:52:44;;;;;;;30.95;17.98;;;1.80;99.90;;;;;;5030568;28;20038;-45
2021/01/24 00:55:10;;;;;;;26.75;16.17;;;1.80;99.90;;;;;;5028559;28;20030;-47
2021/01/24 00:57:35;;;;;;;27.45;15.85;;;1.80;99.90;;;;;;5029655;28;20076;-46
2021/01/24 01:00:02;;;;;;;28.42;16.52;;;1.80;99.90;;;;;;5030352;28;20471;-46
2021/01/24 01:02:27;;;;;;;25.83;15.13;;;1.80;99.90;;;;;;5029270;28;20017;-49
2021/01/24 01:04:53;;;;;;;26.55;15.35;;;1.80;99.90;;;;;;5029744;28;20400;-45
2021/01/24 01:07:18;;;;;;;24.35;14.43;;;1.80;99.90;;;;;;5030482;28;20113;-46
2021/01/24 01:09:44;;;;;;;27.83;14.52;;;1.90;99.90;;;;;;5028985;28;20032;-47
2021/01/24 01:12:09;;;;;;;29.48;16.52;;;1.90;99.90;;;;;;5030045;28;20492;-45
2021/01/24 01:14:35;;;;;;;22.15;14.23;;;1.90;99.90;;;;;;5029401;28;20030;-47
2021/01/24 01:17:00;;;;;;;24.42;15.35;;;1.90;99.90;;;;;;5030045;28;20041;-45
2021/01/24 01:19:26;;;;;;;25.88;14.80;;;1.90;99.90;;;;;;5030095;28;20120;-46
2021/01/24 01:21:51;;;;;;;24.48;14.50;;;1.90;99.90;;;;;;5030132;28;20383;-46
2021/01/24 01:24:17;;;;;;;26.27;14.75;;;1.90;99.90;;;;;;5029694;28;20045;-46
2021/01/24 01:26:42;;;;;;;22.67;13.60;;;1.90;99.90;;;;;;5029224;28;20100;-48
2021/01/24 01:29:08;;;;;;;22.25;13.40;;;1.90;99.90;;;;;;5030028;28;20607;-48
2021/01/24 01:31:33;;;;;;;25.88;15.50;;;1.90;99.90;;;;;;5029962;28;20553;-46
2021/01/24 01:33:59;;;;;;;30.20;15.43;;;1.90;99.90;;;;;;5030009;28;20115;-47
2021/01/24 01:36:25;;;;;;;25.85;14.07;;;1.90;99.90;;;;;;5029686;28;20466;-49
2021/01/24 01:38:51;;;;;;;33.30;16.95;;;1.90;99.90;;;;;;5029342;28;20025;-46
2021/01/24 01:41:16;;;;;;;27.00;15.15;;;1.90;99.90;;;;;;5028277;28;20018;-47
2021/01/24 01:43:42;;;;;;;28.65;15.60;;;1.90;99.90;;;;;;5029878;28;20536;-46
2021/01/24 01:46:07;;;;;;;30.77;15.27;;;1.90;99.90;;;;;;5029120;28;20021;-46
2021/01/24 01:48:33;;;;;;;24.80;14.88;;;1.90;99.90;;;;;;5029748;28;20079;-47
2021/01/24 01:50:59;;;;;;;24.88;14.70;;;1.90;99.90;;;;;;5029730;28;20478;-46
2021/01/24 01:53:25;;;;;;;27.02;14.65;;;1.90;99.90;;;;;;5028095;28;20053;-46
2021/01/24 01:55:51;;;;;;;26.90;15.07;;;1.90;99.90;;;;;;5028518;28;20064;-48
2021/01/24 01:58:16;;;;;;;22.75;14.48;;;1.80;99.90;;;;;;5029530;28;20041;-46
2021/01/24 02:00:42;;;;;;;23.73;14.73;;;1.80;99.90;;;;;;5029265;28;20033;-46
2021/01/24 02:03:36;;;;;;;25.50;14.75;;;1.80;99.90;;;;;;5029328;28;20505;-46
2021/01/24 02:06:35;;;;;;;26.17;15.23;;;1.80;99.90;;;;;;5026575;28;20387;-47
2021/01/24 02:09:18;;;;;;;26.15;14.18;;;1.80;99.90;;;;;;5024598;28;20051;-47
2021/01/24 02:12:08;;;;;;;26.35;15.88;;;1.80;99.90;;;;;;5029249;28;20029;-45
2021/01/24 02:14:39;;;;;;;25.92;13.88;;;1.80;99.90;;;;;;5008955;28;20145;-46
2021/01/24 02:17:08;;;;;;;23.45;13.95;;;1.80;99.90;;;;;;5008239;28;20030;-47
2021/01/24 02:19:54;;;;;;;26.50;16.17;;;1.80;99.90;;;;;;5008177;28;20026;-46
2021/01/24 02:22:21;;;;;;;27.67;16.05;;;1.80;99.90;;;;;;5007995;28;20022;-47
2021/01/24 02:25:03;;;;;;;25.17;14.13;;;1.80;99.90;;;;;;5007865;28;20752;-48
2021/01/24 02:27:48;;;;;;;24.63;14.23;;;1.80;99.90;;;;;;5009257;28;20034;-45
2021/01/24 02:30:22;;;;;;;23.38;13.90;;;1.80;99.90;;;;;;5008092;28;20036;-45
2021/01/24 02:32:56;;;;;;;23.15;14.35;;;1.80;99.90;;;;;;5009053;28;20105;-45
2021/01/24 02:35:28;;;;;;;24.98;14.10;;;1.80;99.90;;;;;;5008483;28;20471;-45
2021/01/24 02:37:55;;;;;;;23.70;13.80;;;1.80;99.90;;;;;;5009056;28;20440;-45
2021/01/24 02:40:21;;;;;;;24.33;14.27;;;1.80;99.90;;;;;;5007397;28;20022;-46
2021/01/24 02:42:49;;;;;;;28.45;15.77;;;1.80;99.90;;;;;;5009107;28;20033;-45
2021/01/24 02:45:16;;;;;;;25.40;14.40;;;1.80;99.90;;;;;;5008370;28;20242;-46
2021/01/24 02:47:43;;;;;;;25.10;14.32;;;1.70;99.90;;;;;;5008982;28;20014;-45
2021/01/24 02:50:09;;;;;;;25.77;14.77;;;1.70;99.90;;;;;;5008890;28;20032;-46
2021/01/24 02:52:35;;;;;;;27.92;15.32;;;1.70;99.90;;;;;;5008948;28;20121;-49
2021/01/24 02:55:03;;;;;;;31.20;17.08;;;1.60;99.90;;;;;;5008120;28;20347;-44
2021/01/24 02:57:28;;;;;;;27.65;15.02;;;1.60;99.90;;;;;;5008875;28;20172;-46
2021/01/24 02:59:54;;;;;;;27.83;15.48;;;1.60;99.90;;;;;;5008730;28;20112;-46
2021/01/24 03:02:19;;;;;;;27.90;17.00;;;1.60;99.90;;;;;;5007469;28;20018;-48
2021/01/24 03:04:45;;;;;;;28.23;16.40;;;1.60;99.90;;;;;;5008512;28;20026;-46
2021/01/24 03:07:10;;;;;;;31.33;16.98;;;1.60;99.90;;;;;;5008880;28;20499;-46
2021/01/24 03:09:36;;;;;;;28.83;17.63;;;1.60;99.90;;;;;;5008465;28;20022;-47
2021/01/24 03:12:05;;;;;;;32.00;18.63;;;1.50;99.90;;;;;;5008830;28;20033;-47
2021/01/24 03:14:32;;;;;;;27.35;16.08;;;1.50;99.90;;;;;;5008187;28;20041;-45
2021/01/24 03:17:01;;;;;;;30.67;18.25;;;1.50;99.90;;;;;;5008785;28;20049;-45
2021/01/24 03:19:29;;;;;;;36.65;20.00;;;1.40;99.90;;;;;;5008027;28;20391;-46
2021/01/24 03:21:57;;;;;;;36.42;19.73;;;1.40;99.90;;;;;;5007306;28;20109;-44
2021/01/24 03:24:23;;;;;;;34.53;19.15;;;1.30;99.90;;;;;;5007845;28;20072;-44
2021/01/24 03:26:50;;;;;;;33.50;19.05;;;1.30;99.90;;;;;;5008769;28;20475;-44
2021/01/24 03:29:15;;;;;;;35.25;19.67;;;1.20;99.90;;;;;;5007535;28;20037;-44
2021/01/24 03:31:42;;;;;;;35.53;21.08;;;1.20;99.90;;;;;;5008395;28;20113;-44
2021/01/24 03:34:20;;;;;;;30.35;19.00;;;1.10;99.90;;;;;;5008589;28;20710;-45
2021/01/24 03:36:49;;;;;;;32.28;19.85;;;1.10;99.90;;;;;;5009569;28;20530;-45
2021/01/24 03:39:15;;;;;;;37.95;20.42;;;1.10;99.90;;;;;;5012053;28;20029;-45
2021/01/24 03:41:41;;;;;;;33.08;19.27;;;1.10;99.90;;;;;;4994788;28;20018;-43
2021/01/24 03:44:07;;;;;;;39.20;22.10;;;1.10;99.90;;;;;;5012383;28;20184;-43
2021/01/24 03:46:34;;;;;;;34.80;19.75;;;1.10;99.90;;;;;;5011768;28;20033;-44
2021/01/24 03:49:00;;;;;;;36.50;20.38;;;1.10;99.90;;;;;;5012280;28;20442;-44
2021/01/24 03:51:26;;;;;;;39.88;21.73;;;1.10;99.90;;;;;;5012480;28;20056;-44
2021/01/24 03:53:52;;;;;;;37.90;20.75;;;1.10;99.90;;;;;;5011916;28;20442;-45
2021/01/24 03:56:17;;;;;;;42.00;21.48;;;1.10;99.90;;;;;;5010443;28;20030;-44
2021/01/24 03:58:43;;;;;;;40.75;21.77;;;1.10;99.90;;;;;;5011743;28;20030;-45
2021/01/24 04:01:08;;;;;;;39.88;22.20;;;1.10;99.90;;;;;;5012007;28;20550;-44
2021/01/24 04:03:34;;;;;;;33.35;19.55;;;1.10;99.90;;;;;;5011929;28;20037;-44
2021/01/24 04:05:59;;;;;;;37.55;21.58;;;1.10;99.90;;;;;;5011272;28;20069;-44
2021/01/24 04:08:25;;;;;;;45.63;24.85;;;1.10;99.90;;;;;;5011867;28;20472;-45
2021/01/24 04:10:50;;;;;;;40.58;22.42;;;1.00;99.90;;;;;;5011586;28;20034;-45
2021/01/24 04:13:15;;;;;;;40.60;22.33;;;1.10;99.90;;;;;;5021536;28;20621;-46
2021/01/24 04:15:41;;;;;;;39.28;21.75;;;1.00;99.90;;;;;;5029437;28;20033;-46
2021/01/24 04:18:07;;;;;;;36.35;20.75;;;1.00;99.90;;;;;;5031549;28;20036;-45
2021/01/24 04:20:33;;;;;;;43.15;23.08;;;1.00;99.90;;;;;;5030262;28;20060;-45
2021/01/24 04:22:58;;;;;;;38.78;22.63;;;1.00;99.90;;;;;;5031555;28;20021;-43
2021/01/24 04:25:24;;;;;;;38.53;23.05;;;1.00;99.90;;;;;;5030397;28;20130;-43
2021/01/24 04:27:50;;;;;;;44.35;22.98;;;1.00;99.90;;;;;;5029779;28;20585;-44
2021/01/24 04:30:16;;;;;;;39.88;22.50;;;1.00;99.90;;;;;;5031101;28;20030;-43
2021/01/24 04:32:41;;;;;;;41.80;22.52;;;1.00;99.90;;;;;;5031257;28;20320;-46
2021/01/24 04:35:08;;;;;;;41.08;23.58;;;1.10;99.90;;;;;;5030857;28;20144;-43
2021/01/24 04:37:33;;;;;;;41.28;23.13;;;1.00;99.90;;;;;;5031114;28;20462;-45
2021/01/24 04:40:00;;;;;;;41.85;25.15;;;1.00;99.90;;;;;;5030945;28;20121;-45
2021/01/24 04:42:26;;;;;;;46.72;23.50;;;1.00;99.90;;;;;;5030973;28;20021;-46
2021/01/24 04:44:51;;;;;;;41.83;23.50;;;1.00;99.90;;;;;;5030428;28;20051;-46
2021/01/24 04:47:18;;;;;;;42.30;22.50;;;1.00;99.90;;;;;;5031085;28;20072;-45
2021/01/24 04:49:44;;;;;;;35.13;20.63;;;1.00;99.90;;;;;;5030361;28;20498;-46
2021/01/24 04:52:10;;;;;;;43.40;24.35;;;1.00;99.90;;;;;;5031200;28;20030;-44
2021/01/24 04:54:36;;;;;;;41.90;23.52;;;1.00;99.90;;;;;;5029794;28;20079;-45
2021/01/24 04:57:03;;;;;;;46.90;27.15;;;1.00;99.90;;;;;;5030905;28;20064;-45
2021/01/24 04:59:28;;;;;;;40.40;23.75;;;1.00;99.90;;;;;;5030547;28;20119;-43
2021/01/24 05:01:54;;;;;;;44.17;24.50;;;1.00;99.90;;;;;;5030573;28;20242;-44
2021/01/24 05:04:20;;;;;;;43.40;24.13;;;1.00;99.90;;;;;;5030647;28;20033;-45
2021/01/24 05:06:46;;;;;;;40.90;23.70;;;1.00;99.90;;;;;;5029931;28;20426;-46
2021/01/24 05:09:12;;;;;;;47.60;25.48;;;1.00;99.90;;;;;;5030272;28;20497;-44
2021/01/24 05:11:38;;;;;;;47.35;26.35;;;1.00;99.90;;;;;;5029017;28;20475;-44
2021/01/24 05:14:14;;;;;;;38.47;22.95;;;1.00;99.90;;;;;;5030321;28;20048;-44
2021/01/24 05:16:41;;;;;;;46.03;24.98;;;1.00;99.90;;;;;;5028867;28;20041;-44
2021/01/24 05:19:08;;;;;;;41.20;24.55;;;1.00;99.90;;;;;;5030488;28;20087;-46
2021/01/24 05:21:36;;;;;;;43.83;23.58;;;1.00;99.90;;;;;;5030370;28;20014;-45
2021/01/24 05:24:03;;;;;;;50.50;26.55;;;1.00;99.90;;;;;;5028944;28;20036;-47
2021/01/24 05:26:29;;;;;;;48.60;24.50;;;1.00;99.90;;;;;;5030049;28;20308;-45
2021/01/24 05:28:55;;;;;;;47.17;25.00;;;1.00;99.90;;;;;;5029571;28;20030;-44
2021/01/24 05:31:23;;;;;;;45.22;25.83;;;1.00;99.90;;;;;;5030104;28;20098;-44
2021/01/24 05:33:49;;;;;;;50.10;27.40;;;1.00;99.90;;;;;;5028649;28;20071;-44
2021/01/24 05:36:15;;;;;;;46.08;24.35;;;1.00;99.90;;;;;;5029310;28;20053;-45
2021/01/24 05:38:40;;;;;;;49.38;25.45;;;1.00;99.90;;;;;;5012041;28;20030;-45
2021/01/24 05:41:08;;;;;;;47.38;25.40;;;1.00;99.90;;;;;;5029603;28;20064;-44
2021/01/24 05:43:44;;;;;;;42.90;23.75;;;1.00;99.90;;;;;;5029879;28;20112;-45
2021/01/24 05:46:11;;;;;;;46.60;25.45;;;1.00;99.90;;;;;;5029542;28;20025;-46
2021/01/24 05:48:46;;;;;;;51.75;26.10;;;1.00;99.90;;;;;;5030091;28;20046;-45
2021/01/24 05:51:14;;;;;;;49.70;26.80;;;1.00;99.90;;;;;;5029617;28;20036;-46
2021/01/24 05:53:48;;;;;;;54.70;26.42;;;1.00;99.90;;;;;;5029863;28;20049;-46
2021/01/24 05:56:18;;;;;;;45.83;26.23;;;1.00;99.90;;;;;;5028778;28;20035;-46
2021/01/24 05:58:44;;;;;;;42.97;24.17;;;1.10;99.90;;;;;;5029351;28;20026;-45
2021/01/24 06:01:10;;;;;;;43.30;25.05;;;1.10;99.90;;;;;;5028591;28;20033;-45
2021/01/24 06:03:36;;;;;;;45.72;25.40;;;1.10;99.90;;;;;;5029596;28;20029;-44
2021/01/24 06:06:03;;;;;;;44.70;23.60;;;1.10;99.90;;;;;;5028772;28;20372;-45
2021/01/24 06:08:29;;;;;;;45.20;26.13;;;1.10;99.90;;;;;;5029416;28;20090;-46
2021/01/24 06:10:57;;;;;;;45.80;24.75;;;1.10;99.90;;;;;;5028511;28;20029;-44
2021/01/24 06:13:24;;;;;;;42.00;23.05;;;1.10;99.90;;;;;;5028609;28;20021;-46
2021/01/24 06:15:57;;;;;;;43.47;23.65;;;1.20;99.90;;;;;;5028071;28;20076;-45
2021/01/24 06:18:31;;;;;;;44.35;26.17;;;1.10;99.90;;;;;;5028476;28;20109;-44
2021/01/24 06:21:01;;;;;;;40.72;23.98;;;1.20;99.90;;;;;;5026161;28;20032;-45
2021/01/24 06:23:38;;;;;;;42.95;24.98;;;1.20;99.90;;;;;;5027123;28;20021;-43
2021/01/24 06:26:12;;;;;;;44.20;24.60;;;1.20;99.90;;;;;;5026432;28;20138;-45
2021/01/24 06:28:42;;;;;;;45.63;24.48;;;1.20;99.90;;;;;;5026520;28;20072;-46
2021/01/24 06:31:18;;;;;;;42.07;24.97;;;1.20;99.90;;;;;;5028166;28;20021;-45
2021/01/24 06:33:44;;;;;;;41.45;24.05;;;1.20;99.90;;;;;;5027164;28;20022;-45
2021/01/24 06:36:11;;;;;;;49.40;25.13;;;1.20;99.90;;;;;;5019492;28;20029;-44
2021/01/24 06:38:39;;;;;;;42.30;23.73;;;1.10;99.90;;;;;;5018651;28;20048;-45
2021/01/24 06:41:07;;;;;;;46.90;24.92;;;1.20;99.90;;;;;;5016434;28;20147;-47
2021/01/24 06:43:40;;;;;;;44.17;25.05;;;1.20;99.90;;;;;;5018426;28;20033;-48
2021/01/24 06:46:07;;;;;;;43.03;24.42;;;1.20;99.90;;;;;;5027303;28;20483;-46
2021/01/24 06:48:44;;;;;;;43.45;24.73;;;1.20;99.90;;;;;;5027588;28;20495;-46
2021/01/24 06:51:29;;;;;;;39.90;23.05;;;1.20;99.90;;;;;;5027485;28;20052;-46
2021/01/24 06:53:54;;;;;;;44.80;24.65;;;1.10;99.90;;;;;;5027727;28;20029;-46
2021/01/24 06:56:20;;;;;;;46.70;25.20;;;1.20;99.90;;;;;;5024221;28;20036;-47
2021/01/24 06:58:52;;;;;;;42.90;26.13;;;1.10;99.90;;;;;;5027591;28;20467;-48
2021/01/24 07:01:31;;;;;;;44.85;24.40;;;1.10;99.90;;;;;;5027667;28;20033;-44
2021/01/24 07:04:34;;;;;;;47.35;25.77;;;1.10;99.90;;;;;;5009519;28;20100;-48
2021/01/24 07:07:22;;;;;;;44.33;24.75;;;1.10;99.90;;;;;;5019740;28;20046;-48
2021/01/24 07:09:49;;;;;;;43.78;23.33;;;1.10;99.90;;;;;;5008429;28;20076;-47
2021/01/24 07:12:14;;;;;;;46.78;24.95;;;1.20;99.90;;;;;;5009937;28;20091;-47
2021/01/24 07:14:41;;;;;;;43.00;24.13;;;1.10;99.90;;;;;;5027841;28;20445;-46
2021/01/24 07:17:07;;;;;;;42.15;24.13;;;1.20;99.90;;;;;;5026885;28;20075;-45
2021/01/24 07:19:39;;;;;;;43.15;23.88;;;1.10;99.90;;;;;;5028458;28;20037;-45
2021/01/24 07:22:05;;;;;;;41.55;24.23;;;1.10;99.90;;;;;;5028392;28;20360;-45
2021/01/24 07:24:31;;;;;;;42.92;24.33;;;1.10;99.90;;;;;;5026310;28;20024;-44
2021/01/24 07:26:57;;;;;;;46.38;25.52;;;1.20;99.90;;;;;;5028084;28;20502;-44
2021/01/24 07:29:24;;;;;;;44.00;24.77;;;1.20;99.90;;;;;;5027202;28;20024;-47
2021/01/24 07:31:50;;;;;;;49.38;26.42;;;1.20;99.90;;;;;;5028046;28;20032;-45
2021/01/24 07:34:21;;;;;;;45.00;24.73;;;1.20;99.90;;;;;;5028074;28;20029;-45
2021/01/24 07:36:47;;;;;;;49.03;27.35;;;1.20;99.90;;;;;;5011276;28;20056;-45
2021/01/24 07:39:13;;;;;;;48.55;26.05;;;1.20;99.90;;;;;;5008588;28;20026;-45
2021/01/24 07:41:39;;;;;;;44.00;25.40;;;1.30;99.90;;;;;;5008270;28;20048;-45
2021/01/24 07:44:05;;;;;;;44.00;24.55;;;1.30;99.90;;;;;;5008042;28;20030;-46
2021/01/24 07:46:30;;;;;;;43.65;24.83;;;1.30;99.90;;;;;;5008153;28;20501;-46
2021/01/24 07:48:56;;;;;;;46.33;25.60;;;1.40;99.90;;;;;;5008340;28;20319;-45
2021/01/24 07:51:22;;;;;;;42.28;24.05;;;1.40;99.90;;;;;;5008286;28;20357;-44
2021/01/24 07:53:47;;;;;;;47.40;23.63;;;1.40;99.90;;;;;;5006960;28;20026;-45
2021/01/24 07:56:13;;;;;;;46.60;26.33;;;1.40;99.90;;;;;;5006215;28;20156;-47
2021/01/24 07:58:39;;;;;;;40.42;23.73;;;1.40;99.90;;;;;;4995571;28;20029;-45
2021/01/24 08:01:05;;;;;;;47.25;26.13;;;1.40;99.90;;;;;;5008126;28;20026;-45
2021/01/24 08:03:34;;;;;;;45.13;24.10;;;1.50;99.90;;;;;;5008132;28;20014;-45
2021/01/24 08:06:06;;;;;;;47.35;25.90;;;1.50;99.90;;;;;;5007634;28;20163;-45
2021/01/24 08:08:33;;;;;;;42.78;23.98;;;1.50;99.90;;;;;;5006889;28;20475;-45
2021/01/24 08:10:59;;;;;;;45.30;24.55;;;1.60;99.90;;;;;;5007045;28;20153;-45
2021/01/24 08:13:25;;;;;;;44.33;23.98;;;1.60;99.90;;;;;;5008038;28;20038;-46
2021/01/24 08:15:51;;;;;;;45.65;24.52;;;1.60;99.90;;;;;;5007480;28;20034;-46
2021/01/24 08:18:18;;;;;;;39.97;23.17;;;1.60;99.90;;;;;;5008065;28;20026;-46
2021/01/24 08:20:44;;;;;;;45.00;22.02;;;1.70;99.90;;;;;;5007939;28;20029;-45
2021/01/24 08:23:10;;;;;;;41.42;23.08;;;1.70;99.90;;;;;;5007429;28;20034;-47
2021/01/24 08:25:36;;;;;;;42.88;24.00;;;1.70;99.90;;;;;;5011543;28;20080;-45
2021/01/24 08:28:02;;;;;;;39.85;22.50;;;1.80;99.90;;;;;;5014007;28;20029;-45
2021/01/24 08:30:27;;;;;;;38.17;21.60;;;1.80;99.90;;;;;;5030960;28;20510;-47
2021/01/24 08:32:56;;;;;;;40.88;22.73;;;1.80;99.90;;;;;;5031362;28;20113;-46
2021/01/24 08:35:21;;;;;;;42.90;23.40;;;1.80;99.90;;;;;;5030966;28;20079;-47
2021/01/24 08:37:46;;;;;;;39.92;21.75;;;1.90;99.90;;;;;;5031171;28;20033;-46
2021/01/24 08:40:12;;;;;;;41.08;23.00;;;2.00;99.90;;;;;;5030787;28;20033;-46
2021/01/24 08:42:49;;;;;;;39.88;21.17;;;2.00;99.90;;;;;;5030946;28;20106;-45
2021/01/24 08:45:19;;;;;;;44.50;24.42;;;2.00;99.90;;;;;;5030098;28;20087;-47
2021/01/24 08:47:54;;;;;;;44.78;25.98;;;2.10;99.90;;;;;;5031036;28;20638;-46
2021/01/24 08:50:20;;;;;;;41.35;22.80;;;2.10;99.90;;;;;;5030927;28;20037;-45
2021/01/24 08:52:59;;;;;;;43.45;24.08;;;2.10;99.90;;;;;;5030901;28;20477;-46
2021/01/24 08:55:25;;;;;;;39.53;23.42;;;2.20;99.90;;;;;;5029631;28;20495;-45
2021/01/24 08:57:51;;;;;;;38.67;23.25;;;2.20;99.90;;;;;;5030370;28;20029;-45
2021/01/24 09:00:18;;;;;;;39.72;23.45;;;2.30;99.90;;;;;;5030601;28;20068;-46
2021/01/24 09:02:44;;;;;;;41.90;22.92;;;2.40;99.90;;;;;;5030487;28;20025;-47
2021/01/24 09:05:15;;;;;;;37.00;21.92;;;2.40;99.90;;;;;;5028542;28;20482;-46
2021/01/24 09:07:48;;;;;;;40.10;22.92;;;2.40;99.90;;;;;;5030575;28;20053;-47
2021/01/24 09:10:28;;;;;;;41.25;23.75;;;2.40;99.90;;;;;;5030094;28;20076;-46
2021/01/24 09:12:56;;;;;;;37.20;20.88;;;2.40;99.90;;;;;;5029520;28;20084;-47
2021/01/24 09:15:23;;;;;;;40.53;22.20;;;2.50;99.90;;;;;;5028877;28;20037;-46
2021/01/24 09:17:50;;;;;;;40.15;21.52;;;2.50;99.90;;;;;;5030193;28;20196;-47
2021/01/24 09:20:16;;;;;;;35.75;20.08;;;2.60;99.90;;;;;;5029950;28;20021;-47
2021/01/24 09:22:43;;;;;;;39.00;22.55;;;2.70;99.90;;;;;;5022860;28;20135;-49
2021/01/24 09:25:09;;;;;;;40.90;22.83;;;2.70;99.90;;;;;;5022515;28;20438;-47
2021/01/24 09:27:35;;;;;;;37.63;21.92;;;2.70;99.90;;;;;;5022011;28;20030;-50
2021/01/24 09:30:02;;;;;;;40.95;23.40;;;2.70;99.90;;;;;;5024417;28;20095;-46
2021/01/24 09:32:28;;;;;;;41.53;23.20;;;2.70;99.90;;;;;;5026869;28;20037;-45
2021/01/24 09:34:53;;;;;;;38.67;22.13;;;2.70;99.90;;;;;;5023991;28;20044;-47
2021/01/24 09:37:19;;;;;;;41.80;21.77;;;2.70;99.90;;;;;;5023032;28;20109;-45
2021/01/24 09:39:44;;;;;;;36.72;21.33;;;2.70;99.90;;;;;;5021238;28;20036;-46
2021/01/24 09:42:10;;;;;;;37.13;21.60;;;2.70;99.90;;;;;;5022147;28;20025;-46
2021/01/24 09:44:35;;;;;;;37.95;22.17;;;2.70;99.90;;;;;;5022968;28;20513;-46
2021/01/24 09:47:01;;;;;;;35.95;20.98;;;2.60;99.90;;;;;;5030776;28;20025;-46
2021/01/24 09:49:27;;;;;;;40.55;22.00;;;2.70;99.90;;;;;;5031082;28;20396;-47
2021/01/24 09:51:52;;;;;;;35.20;20.27;;;2.60;99.90;;;;;;5028093;28;20107;-47
2021/01/24 09:54:18;;;;;;;41.78;22.52;;;2.60;99.90;;;;;;5003958;28;20044;-47
2021/01/24 09:56:44;;;;;;;37.03;20.92;;;2.60;99.90;;;;;;5029305;28;20024;-46
2021/01/24 09:59:11;;;;;;;37.67;21.27;;;2.60;99.90;;;;;;5030488;28;20028;-45
2021/01/24 10:01:37;;;;;;;40.85;21.92;;;2.60;99.90;;;;;;5029818;28;20013;-46
2021/01/24 10:04:03;;;;;;;36.15;19.10;;;2.60;99.90;;;;;;5030249;28;20459;-48
2021/01/24 10:06:28;;;;;;;33.78;20.08;;;2.50;99.90;;;;;;5030162;28;20280;-47
2021/01/24 10:08:54;;;;;;;38.97;20.13;;;2.60;99.90;;;;;;5012891;28;20053;-48
2021/01/24 10:11:21;;;;;;;35.15;20.17;;;2.60;99.90;;;;;;5030294;28;20391;-46
2021/01/24 10:13:47;;;;;;;36.55;19.45;;;2.60;99.90;;;;;;5028110;28;20040;-46
2021/01/24 10:16:13;;;;;;;39.53;21.60;;;2.60;99.90;;;;;;5002674;28;20032;-49
2021/01/24 10:18:40;;;;;;;33.25;18.27;;;2.60;99.90;;;;;;5004493;28;20030;-45
2021/01/24 10:21:06;;;;;;;35.97;19.92;;;2.60;99.90;;;;;;5018722;28;20386;-46
2021/01/24 10:23:31;;;;;;;37.50;20.30;;;2.60;99.90;;;;;;5021124;28;20093;-47
2021/01/24 10:25:57;;;;;;;33.10;18.50;;;2.60;99.90;;;;;;5029031;28;20040;-47
2021/01/24 10:28:26;;;;;;;34.47;17.85;;;2.60;99.90;;;;;;5028076;28;20088;-46
2021/01/24 10:30:52;;;;;;;34.25;19.63;;;2.70;99.90;;;;;;5030024;28;20101;-47
2021/01/24 10:33:18;;;;;;;37.20;18.38;;;2.60;99.90;;;;;;5012808;28;20067;-49
2021/01/24 10:35:44;;;;;;;31.33;17.48;;;2.60;99.90;;;;;;5010107;28;20503;-45
2021/01/24 10:38:10;;;;;;;29.05;16.60;;;2.70;99.90;;;;;;5010477;28;20038;-47
2021/01/24 10:40:36;;;;;;;31.35;16.95;;;2.70;99.90;;;;;;5010478;28;20034;-47
2021/01/24 10:43:02;;;;;;;38.47;20.48;;;2.70;99.90;;;;;;5010191;28;20060;-49
2021/01/24 10:45:30;;;;;;;29.55;16.13;;;2.70;99.90;;;;;;5009729;28;20026;-47
2021/01/24 10:47:56;;;;;;;31.75;16.90;;;2.70;99.90;;;;;;5010218;28;20018;-47
2021/01/24 10:50:21;;;;;;;29.67;16.75;;;2.70;99.90;;;;;;5010419;28;20045;-47
2021/01/24 10:52:47;;;;;;;29.40;16.08;;;2.70;99.90;;;;;;5010397;28;20036;-48
2021/01/24 10:55:13;;;;;;;26.90;15.27;;;2.70;99.90;;;;;;5009548;28;20038;-47
2021/01/24 10:57:41;;;;;;;29.63;15.50;;;2.80;99.90;;;;;;5028357;28;20277;-47
2021/01/24 11:00:08;;;;;;;26.90;15.13;;;2.80;99.90;;;;;;5029268;28;20036;-46
2021/01/24 11:02:33;;;;;;;28.13;15.90;;;2.80;99.90;;;;;;5029687;28;20036;-47
2021/01/24 11:04:59;;;;;;;28.75;15.18;;;2.80;99.90;;;;;;5026901;28;20033;-45
2021/01/24 11:07:25;;;;;;;30.55;15.07;;;2.90;99.90;;;;;;5028251;28;20160;-49
2021/01/24 11:09:51;;;;;;;29.80;16.65;;;2.90;99.90;;;;;;5011275;28;20018;-45
2021/01/24 11:12:16;;;;;;;25.83;14.65;;;2.90;99.90;;;;;;5009784;28;20049;-49
2021/01/24 11:14:42;;;;;;;22.85;13.88;;;3.00;99.90;;;;;;5009427;28;20030;-49
2021/01/24 11:17:08;;;;;;;24.58;13.45;;;3.00;99.90;;;;;;5010064;28;20072;-48
2021/01/24 11:19:34;;;;;;;23.42;13.07;;;3.00;99.90;;;;;;5016577;28;20127;-48
2021/01/24 11:21:59;;;;;;;25.60;13.43;;;3.00;99.90;;;;;;5023186;28;20026;-48
2021/01/24 11:24:25;;;;;;;23.65;13.32;;;3.10;99.90;;;;;;5014973;28;20574;-46
2021/01/24 11:26:51;;;;;;;19.80;12.20;;;3.10;99.90;;;;;;4996873;28;20010;-47
2021/01/24 11:29:16;;;;;;;19.42;11.45;;;3.20;99.90;;;;;;5020121;28;20017;-47
2021/01/24 11:31:42;;;;;;;22.00;12.13;;;3.10;99.90;;;;;;5029558;28;20494;-46
2021/01/24 11:34:08;;;;;;;22.77;12.68;;;3.20;99.90;;;;;;5029649;28;20021;-47
2021/01/24 11:36:33;;;;;;;20.70;11.65;;;3.30;99.90;;;;;;5024762;28;20025;-46
2021/01/24 11:38:59;;;;;;;21.13;11.88;;;3.20;99.90;;;;;;5024541;28;20707;-46
2021/01/24 11:41:24;;;;;;;18.25;11.70;;;3.30;99.90;;;;;;5022283;28;20029;-47
2021/01/24 11:43:51;;;;;;;21.70;12.35;;;3.20;99.90;;;;;;5010028;28;20014;-47
2021/01/24 11:46:17;;;;;;;23.65;13.20;;;3.30;99.90;;;;;;5024650;28;20481;-46
2021/01/24 11:48:42;;;;;;;20.27;11.80;;;3.30;99.90;;;;;;5022895;28;20105;-46
2021/01/24 11:51:08;;;;;;;18.70;11.60;;;3.30;99.90;;;;;;5019251;28;20501;-48
2021/01/24 11:53:34;;;;;;;19.25;10.90;;;3.30;99.90;;;;;;5020043;28;20040;-46
2021/01/24 11:56:00;;;;;;;17.10;11.27;;;3.30;99.90;;;;;;5001786;28;20289;-46
2021/01/24 11:58:26;;;;;;;15.77;9.48;;;3.30;99.90;;;;;;5015552;28;20033;-45
2021/01/24 12:00:51;;;;;;;15.80;9.68;;;3.30;99.90;;;;;;5022168;28;20495;-48
2021/01/24 12:03:17;;;;;;;18.63;10.55;;;3.30;99.90;;;;;;5028418;28;20580;-45
2021/01/24 12:05:42;;;;;;;16.38;9.98;;;3.30;99.90;;;;;;5024896;28;20028;-47
2021/01/24 12:08:08;;;;;;;14.88;8.90;;;3.30;99.90;;;;;;5008325;28;20041;-46
2021/01/24 12:10:34;;;;;;;13.95;8.40;;;3.30;99.90;;;;;;5020511;28;20083;-48
2021/01/24 12:13:00;;;;;;;15.50;10.05;;;3.30;99.90;;;;;;5018274;28;20033;-48
2021/01/24 12:15:25;;;;;;;18.92;11.18;;;3.30;99.90;;;;;;5030701;28;20071;-46
2021/01/24 12:17:51;;;;;;;20.60;11.98;;;3.20;99.90;;;;;;5013297;28;20029;-46
2021/01/24 12:20:16;;;;;;;14.90;9.73;;;3.20;99.90;;;;;;5029666;28;20041;-50
2021/01/24 12:22:42;;;;;;;16.30;10.02;;;3.20;99.90;;;;;;5032334;28;20044;-48
2021/01/24 12:25:08;;;;;;;20.33;11.25;;;3.20;99.90;;;;;;5031507;28;20017;-49
2021/01/24 12:27:34;;;;;;;19.05;10.18;;;3.10;99.90;;;;;;5001553;28;20495;-49
2021/01/24 12:30:00;;;;;;;18.58;10.52;;;3.20;99.90;;;;;;5030261;28;20028;-50
2021/01/24 12:32:25;;;;;;;16.45;9.57;;;3.20;99.90;;;;;;5031945;28;20037;-46
2021/01/24 12:34:51;;;;;;;16.25;11.05;;;3.20;99.90;;;;;;5031484;28;20034;-47
2021/01/24 12:37:16;;;;;;;16.55;10.02;;;3.20;99.90;;;;;;5032560;28;20037;-47
2021/01/24 12:39:42;;;;;;;16.20;10.57;;;3.30;99.90;;;;;;5032204;28;20159;-46